This is the latest recevied weather packets stored in our database for station/object NO9B. If no packets are shown the sender has not sent any weather packets the latest 10 day(s).
| Time | Temp. | Humidity | Pressure | Rain* | Wind** | Luminosity | Snow |
|---|---|---|---|---|---|---|---|
| 1788029103 | 23.33° C | 81% | 1020 hPa | 0.51 mm | - | 63 W/m² | - |
| 1788028798 | 23.89° C | 79% | 1020 hPa | 1.27 mm | - | 44 W/m² | - |
| 1788028493 | 23.89° C | 81% | 1020.3 hPa | 3.05 mm | - | 52 W/m² | - |
| 1788028188 | 24.44° C | 80% | 1020.3 hPa | 2.29 mm | - | 57 W/m² | - |
| 1788027889 | 24.44° C | 80% | 1020.3 hPa | 1.27 mm | - | 53 W/m² | - |
| 1788027583 | 24.44° C | 76% | 1020.3 hPa | 0.51 mm | - | 52 W/m² | - |
| 1788027278 | 24.44° C | 78% | 1020.3 hPa | 0 mm | - | 58 W/m² | - |
| 1788026977 | 25° C | 75% | 1020.3 hPa | 0 mm | - | 60 W/m² | - |
| 1788026672 | 25° C | 74% | 1020.4 hPa | 0 mm | - | 52 W/m² | - |
| 1788026367 | 25° C | 73% | 1020.6 hPa | 0 mm | - | 53 W/m² | - |
| 1788026063 | 25° C | 71% | 1020.6 hPa | 0 mm | - | 57 W/m² | - |
| 1788025761 | 25° C | 71% | 1020.7 hPa | 0 mm | - | 52 W/m² | - |
| 1788025456 | 25.56° C | 69% | 1020.7 hPa | 0 mm | - | 47 W/m² | - |
| 1788025152 | 26.11° C | 68% | 1020.7 hPa | 0 mm | - | 60 W/m² | - |
| 1788024851 | 26.11° C | 69% | 1020.7 hPa | 0 mm | - | 83 W/m² | - |
| 1788024548 | 26.11° C | 68% | 1020.8 hPa | 0 mm | - | 173 W/m² | - |
| 1788024247 | 26.11° C | 72% | 1020.8 hPa | 0 mm | - | 273 W/m² | - |
| 1788023942 | 25.56° C | 70% | 1020.9 hPa | 0 mm | - | 272 W/m² | - |
| 1788023637 | 25° C | 75% | 1020.8 hPa | 0 mm | - | 262 W/m² | - |
| 1788023334 | 24.44° C | 75% | 1020.8 hPa | 0 mm | - | 241 W/m² | - |
| 1788023033 | 23.89° C | 76% | 1021 hPa | 0 mm | - | 88 W/m² | - |
| 1788022731 | 23.89° C | 75% | 1021 hPa | 0 mm | - | 67 W/m² | - |
| 1788022430 | 23.89° C | 73% | 1021 hPa | 0 mm | - | 81 W/m² | - |
| 1788022125 | 23.89° C | 75% | 1021.2 hPa | 0 mm | - | 102 W/m² | - |
| 1788021824 | 23.89° C | 75% | 1021.2 hPa | 0 mm | - | 107 W/m² | - |
* Rain latest hour (hover to see other rain measurements)
** Current wind speed in m/s (hover to see current wind gust speed)